Delta Qualiflight

METAR

KFTW 212224Z 31006KT 9SM -RA OVC004 02/01 A3024 RMK AO2 P0004 T00220011

TAF

TAF AMD KFTW 212101Z 2121/2218 36018KT 3SM RA BR VCTS OVC007CB TEMPO 2121/2123 2SM TSRA OVC007CB FM220000 35012KT 5SM BR VCSH OVC008 FM220300 34012KT P6SM OVC008 FM221600 35010KT 4SM BR VCSH OVC008